createdAt,value
2023-11-01T00:02:14.954Z,101115.09
2023-11-01T00:04:41.898Z,101120.00
2023-11-01T00:07:08.900Z,101114.22
2023-11-01T00:09:35.745Z,101106.16
2023-11-01T00:12:03.084Z,101103.91
2023-11-01T00:14:30.062Z,101106.16
2023-11-01T00:16:57.006Z,101102.47
2023-11-01T00:19:24.811Z,101100.59
2023-11-01T00:21:51.706Z,101091.09
2023-11-01T00:24:19.207Z,101091.34
2023-11-01T00:26:46.269Z,101084.94
2023-11-01T00:29:13.859Z,101082.25
2023-11-01T00:31:40.965Z,101075.88
2023-11-01T00:34:08.912Z,101076.47
2023-11-01T00:36:35.895Z,101075.66
2023-11-01T00:39:03.200Z,101072.09
2023-11-01T00:41:31.301Z,101074.53
2023-11-01T00:43:58.249Z,101075.34
2023-11-01T00:46:25.937Z,101082.50
2023-11-01T00:48:52.878Z,101086.59
2023-11-01T00:51:20.058Z,101078.97
2023-11-01T00:53:46.889Z,101062.91
2023-11-01T00:56:13.879Z,101068.66
2023-11-01T00:58:40.894Z,101070.06
2023-11-01T01:01:07.714Z,101069.25
2023-11-01T01:03:34.738Z,101063.50
2023-11-01T01:06:02.379Z,101054.63
2023-11-01T01:08:30.785Z,101055.31
2023-11-01T01:10:58.148Z,101056.34
2023-11-01T01:13:25.139Z,101051.22
2023-11-01T01:15:52.350Z,101053.72
2023-11-01T01:18:21.829Z,101052.47
2023-11-01T01:20:49.228Z,101047.72
2023-11-01T01:23:16.458Z,101056.41
2023-11-01T01:25:43.571Z,101057.41
2023-11-01T01:28:10.483Z,101052.47
2023-11-01T01:30:38.009Z,101047.72
2023-11-01T01:33:04.975Z,101034.09
2023-11-01T01:35:32.149Z,101034.97
2023-11-01T01:37:59.268Z,101043.81
2023-11-01T01:40:26.199Z,101043.59
2023-11-01T01:42:53.313Z,101045.00
2023-11-01T01:45:22.813Z,101045.16
2023-11-01T01:47:50.192Z,101042.00
2023-11-01T01:50:17.209Z,101043.84
2023-11-01T01:52:44.171Z,101036.66
2023-11-01T01:55:12.248Z,101037.69
2023-11-01T01:57:39.825Z,101038.31
2023-11-01T02:00:08.724Z,101033.75
2023-11-01T02:02:42.255Z,101029.22
2023-11-01T02:05:10.594Z,101020.56
2023-11-01T02:07:37.383Z,101014.41
2023-11-01T02:10:04.607Z,101015.66
2023-11-01T02:12:31.493Z,101009.06
2023-11-01T02:14:58.301Z,101002.03
2023-11-01T02:17:25.214Z,100997.72
2023-11-01T02:19:52.106Z,100994.66
2023-11-01T02:22:18.960Z,100994.25
2023-11-01T02:24:45.986Z,100985.19
2023-11-01T02:27:13.178Z,100972.22
2023-11-01T02:29:40.035Z,100969.34
2023-11-01T02:32:09.422Z,100962.13
2023-11-01T02:34:37.319Z,100963.75
2023-11-01T02:37:04.997Z,100962.94
2023-11-01T02:39:31.860Z,100965.19
2023-11-01T02:41:58.675Z,100966.84
2023-11-01T02:44:25.530Z,100968.28
2023-11-01T02:46:52.430Z,100967.69
2023-11-01T02:49:19.321Z,100974.50
2023-11-01T02:51:46.116Z,100968.06
2023-11-01T02:54:12.947Z,100958.97
2023-11-01T02:56:40.026Z,100963.31
2023-11-01T02:59:07.100Z,100956.53
2023-11-01T03:01:34.832Z,100957.53
2023-11-01T03:04:01.848Z,100948.47
2023-11-01T03:06:28.728Z,100940.44
2023-11-01T03:08:55.845Z,100940.22
2023-11-01T03:11:22.802Z,100935.69
2023-11-01T03:13:49.935Z,100930.97
2023-11-01T03:16:16.820Z,100924.16
2023-11-01T03:18:45.688Z,100923.09
2023-11-01T03:21:12.649Z,100916.13
2023-11-01T03:23:39.513Z,100912.97
2023-11-01T03:26:06.545Z,100922.06
2023-11-01T03:28:33.682Z,100913.81
2023-11-01T03:31:00.514Z,100911.56
2023-11-01T03:33:28.607Z,100903.53
2023-11-01T03:35:55.504Z,100907.22
2023-11-01T03:38:23.624Z,100904.13
2023-11-01T03:40:50.592Z,100901.84
2023-11-01T03:43:17.449Z,100892.78
2023-11-01T03:45:44.293Z,100896.47
2023-11-01T03:48:11.233Z,100885.13
2023-11-01T03:50:38.093Z,100890.69
2023-11-01T03:53:05.085Z,100891.94
2023-11-01T03:55:31.924Z,100883.91
2023-11-01T03:57:58.762Z,100884.44
2023-11-01T04:00:25.577Z,100889.13
2023-11-01T04:02:52.677Z,100892.59
2023-11-01T04:05:19.886Z,100898.28
2023-11-01T04:07:46.949Z,100901.97
2023-11-01T04:10:14.643Z,100899.53
2023-11-01T04:12:41.525Z,100897.13
2023-11-01T04:15:14.800Z,100898.78
2023-11-01T04:17:41.697Z,100896.44
2023-11-01T04:20:09.816Z,100891.09
2023-11-01T04:22:39.009Z,100898.88
2023-11-01T04:25:06.954Z,100905.34
2023-11-01T04:27:41.122Z,100909.28
2023-11-01T04:30:13.435Z,100912.63
2023-11-01T04:32:42.503Z,100911.31
2023-11-01T04:35:12.425Z,100913.66
2023-11-01T04:37:43.015Z,100919.56
2023-11-01T04:40:14.369Z,100920.41
2023-11-01T04:42:42.804Z,100913.38
2023-11-01T04:45:11.409Z,100915.19
2023-11-01T04:47:45.891Z,100915.53
2023-11-01T04:50:14.508Z,100924.59
2023-11-01T04:52:42.556Z,100920.13
2023-11-01T04:55:11.500Z,100915.19
2023-11-01T04:57:38.547Z,100917.31
2023-11-01T05:00:17.883Z,100915.00
2023-11-01T05:02:49.195Z,100903.56
2023-11-01T05:05:16.213Z,100899.88
2023-11-01T05:07:43.420Z,100887.16
2023-11-01T05:10:10.509Z,100898.94
2023-11-01T05:12:37.337Z,100888.66
2023-11-01T05:15:04.466Z,100900.81
2023-11-01T05:17:31.447Z,100899.59
2023-11-01T05:19:58.833Z,100906.19
2023-11-01T05:22:25.645Z,100902.06
2023-11-01T05:24:52.516Z,100905.94
2023-11-01T05:27:21.215Z,100913.19
2023-11-01T05:29:48.517Z,100922.28
2023-11-01T05:32:15.447Z,100920.81
2023-11-01T05:34:42.343Z,100926.94
2023-11-01T05:37:12.388Z,100929.25
2023-11-01T05:39:39.449Z,100932.72
2023-11-01T05:42:07.072Z,100927.53
2023-11-01T05:44:34.044Z,100924.91
2023-11-01T05:47:01.275Z,100909.69
2023-11-01T05:49:28.294Z,100912.97
2023-11-01T05:51:55.313Z,100911.16
2023-11-01T05:54:22.340Z,100899.59
2023-11-01T05:56:49.137Z,100891.88
2023-11-01T05:59:16.416Z,100890.91
2023-11-01T06:01:43.381Z,100903.22
2023-11-01T06:04:10.336Z,100888.50
2023-11-01T06:06:37.629Z,100883.59
2023-11-01T06:09:04.624Z,100878.09
2023-11-01T06:11:33.083Z,100880.16
2023-11-01T06:14:00.566Z,100875.06
2023-11-01T06:16:27.596Z,100862.75
2023-11-01T06:18:54.555Z,100867.28
2023-11-01T06:21:21.336Z,100865.03
2023-11-01T06:23:48.161Z,100859.94
2023-11-01T06:26:17.744Z,100856.03
2023-11-01T06:28:45.028Z,100857.69
2023-11-01T06:31:15.481Z,100855.28
2023-11-01T06:33:42.655Z,100856.53
2023-11-01T06:36:09.822Z,100859.19
2023-11-01T06:38:37.438Z,100860.84
2023-11-01T06:41:05.512Z,100859.44
2023-11-01T06:43:33.080Z,100855.31
2023-11-01T06:45:59.881Z,100860.88
2023-11-01T06:48:26.844Z,100865.63
2023-11-01T06:50:53.871Z,100858.22
2023-11-01T06:53:20.804Z,100851.84
2023-11-01T06:55:47.642Z,100878.41
2023-11-01T06:58:14.517Z,100886.06
2023-11-01T07:00:42.423Z,100887.72
2023-11-01T07:03:11.848Z,100886.28
2023-11-01T07:05:39.585Z,100879.88
2023-11-01T07:08:06.530Z,100890.22
2023-11-01T07:10:33.366Z,100896.22
2023-11-01T07:13:00.252Z,100890.03
2023-11-01T07:15:27.069Z,100882.22
2023-11-01T07:17:54.047Z,100897.25
2023-11-01T07:20:20.899Z,100891.28
2023-11-01T07:22:47.801Z,100896.84
2023-11-01T07:25:14.900Z,100904.03
2023-11-01T07:27:41.792Z,100906.72
2023-11-01T07:30:09.154Z,100905.91
2023-11-01T07:32:36.050Z,100897.44
2023-11-01T07:35:04.868Z,100900.25
2023-11-01T07:37:31.719Z,100901.28
2023-11-01T07:39:59.142Z,100894.44
2023-11-01T07:42:26.032Z,100899.78
2023-11-01T07:44:53.633Z,100899.53
2023-11-01T07:47:20.556Z,100892.84
2023-11-01T07:49:47.459Z,100899.59
2023-11-01T07:52:14.942Z,100893.31
2023-11-01T07:54:41.791Z,100886.28
2023-11-01T07:57:09.062Z,100887.59
2023-11-01T07:59:35.983Z,100883.91
2023-11-01T08:02:02.823Z,100880.63
2023-11-01T08:04:29.967Z,100885.41
2023-11-01T08:06:57.861Z,100886.00
2023-11-01T08:09:24.845Z,100888.94
2023-11-01T08:11:51.753Z,100881.78
2023-11-01T08:14:18.656Z,100899.53
2023-11-01T08:16:49.380Z,100909.00
2023-11-01T08:19:16.717Z,100890.44
2023-11-01T08:21:43.707Z,100875.06
2023-11-01T08:24:10.781Z,100876.38
2023-11-01T08:26:37.699Z,100865.47
2023-11-01T08:29:04.832Z,100863.22
2023-11-01T08:31:31.769Z,100865.63
2023-11-01T08:33:58.828Z,100862.13
2023-11-01T08:36:25.738Z,100846.84
2023-11-01T08:38:52.620Z,100843.75
2023-11-01T08:41:20.347Z,100866.56
2023-11-01T08:43:47.243Z,100866.84
2023-11-01T08:46:14.830Z,100870.22
2023-11-01T08:48:41.735Z,100861.47
2023-11-01T08:51:11.526Z,100857.59
2023-11-01T08:53:38.445Z,100860.03
2023-11-01T08:56:06.364Z,100859.50
2023-11-01T08:58:33.255Z,100860.97
2023-11-01T09:01:01.551Z,100877.38
2023-11-01T09:03:28.906Z,100864.75
2023-11-01T09:05:56.087Z,100867.59
2023-11-01T09:08:23.214Z,100872.91
2023-11-01T09:10:52.923Z,100863.53
2023-11-01T09:13:21.289Z,100856.31
2023-11-01T09:15:48.118Z,100858.78
2023-11-01T09:18:15.024Z,100848.34
2023-11-01T09:20:41.910Z,100838.56
2023-11-01T09:23:08.730Z,100838.66
2023-11-01T09:25:35.675Z,100837.94
2023-11-01T09:28:02.571Z,100849.00
2023-11-01T09:30:29.569Z,100859.31
2023-11-01T09:32:56.559Z,100865.88
2023-11-01T09:35:23.696Z,100849.31
2023-11-01T09:37:50.560Z,100844.75
2023-11-01T09:40:17.553Z,100864.94
2023-11-01T09:42:44.643Z,100878.91
2023-11-01T09:45:13.415Z,100870.94
2023-11-01T09:47:40.942Z,100889.38
2023-11-01T09:50:09.510Z,100886.44
2023-11-01T09:52:37.423Z,100881.50
2023-11-01T09:55:05.999Z,100886.09
2023-11-01T09:57:35.062Z,100893.72
2023-11-01T10:00:05.804Z,100899.34
2023-11-01T10:02:33.658Z,100903.34
2023-11-01T10:05:00.751Z,100896.03
2023-11-01T10:07:27.574Z,100899.78
2023-11-01T10:09:55.758Z,100895.47
2023-11-01T10:12:24.297Z,100905.91
2023-11-01T10:14:51.100Z,100900.38
2023-11-01T10:17:18.087Z,100907.16
2023-11-01T10:19:44.935Z,100896.72
2023-11-01T10:22:15.319Z,100898.84
2023-11-01T10:24:45.176Z,100898.34
2023-11-01T10:27:12.243Z,100894.25
2023-11-01T10:29:44.482Z,100899.50
2023-11-01T10:32:11.758Z,100882.41
2023-11-01T10:34:38.787Z,100876.84
2023-11-01T10:37:06.971Z,100869.88
2023-11-01T10:39:37.250Z,100864.47
2023-11-01T10:42:06.100Z,100868.50
2023-11-01T10:44:33.475Z,100874.81
2023-11-01T10:47:01.544Z,100876.44
2023-11-01T10:49:29.397Z,100871.16
2023-11-01T10:52:00.563Z,100869.25
2023-11-01T10:54:28.797Z,100859.63
2023-11-01T10:56:56.533Z,100861.34
2023-11-01T11:00:09.579Z,100867.09
2023-11-01T11:02:54.284Z,100868.81
2023-11-01T11:05:27.563Z,100850.97
2023-11-01T11:07:58.408Z,100858.16
2023-11-01T11:10:33.982Z,100841.53
2023-11-01T11:13:10.434Z,100851.75
2023-11-01T11:15:49.716Z,100840.84
2023-11-01T11:18:23.192Z,100831.69
2023-11-01T11:20:51.795Z,100832.25
2023-11-01T11:23:21.179Z,100840.59
2023-11-01T11:25:50.884Z,100846.44
2023-11-01T11:28:23.830Z,100829.44
2023-11-01T11:31:17.124Z,100826.31
2023-11-01T11:33:47.240Z,100814.84
2023-11-01T11:36:14.913Z,100807.31
2023-11-01T11:38:58.121Z,100813.03
2023-11-01T11:41:37.299Z,100788.47
2023-11-01T11:44:14.817Z,100794.06
2023-11-01T11:46:41.983Z,100797.91
2023-11-01T11:49:22.207Z,100798.88
2023-11-01T11:52:18.589Z,100783.81
2023-11-01T11:54:45.766Z,100774.41
2023-11-01T11:57:14.725Z,100779.72
2023-11-01T11:59:43.598Z,100791.38
2023-11-01T12:02:13.559Z,100793.44
2023-11-01T12:04:41.637Z,100792.25
2023-11-01T12:07:09.116Z,100794.41
2023-11-01T12:09:36.015Z,100788.13
2023-11-01T12:12:15.368Z,100773.03
2023-11-01T12:14:45.831Z,100759.41
2023-11-01T12:17:12.735Z,100758.50
2023-11-01T12:19:47.091Z,100757.56
2023-11-01T12:22:15.678Z,100749.72
2023-11-01T12:24:43.557Z,100738.81
2023-11-01T12:27:12.394Z,100739.19
2023-11-01T12:29:43.462Z,100751.03
2023-11-01T12:32:15.253Z,100766.63
2023-11-01T12:34:50.943Z,100778.63
2023-11-01T12:37:20.521Z,100769.72
2023-11-01T12:40:08.859Z,100752.78
2023-11-01T12:42:36.446Z,100772.78
2023-11-01T12:45:04.642Z,100775.13
2023-11-01T12:47:45.091Z,100748.81
2023-11-01T12:50:16.803Z,100760.81
2023-11-01T12:52:44.099Z,100771.00
2023-11-01T12:55:11.822Z,100743.31
2023-11-01T12:57:50.862Z,100765.75
2023-11-01T13:00:20.607Z,100769.31
2023-11-01T13:02:47.808Z,100762.16
2023-11-01T13:05:15.124Z,100768.63
2023-11-01T13:07:42.520Z,100761.94
2023-11-01T13:10:12.595Z,100772.84
2023-11-01T13:12:40.315Z,100785.94
2023-11-01T13:15:08.148Z,100789.53
2023-11-01T13:17:35.189Z,100778.56
2023-11-01T13:20:02.091Z,100781.94
2023-11-01T13:22:28.923Z,100786.25
2023-11-01T13:24:55.792Z,100793.28
2023-11-01T13:27:22.609Z,100802.41
2023-11-01T13:29:50.755Z,100802.69
2023-11-01T13:32:17.836Z,100799.34
2023-11-01T13:34:44.860Z,100810.66
2023-11-01T13:37:13.861Z,100799.03
2023-11-01T13:39:40.667Z,100795.94
2023-11-01T13:42:07.838Z,100781.16
2023-11-01T13:44:34.771Z,100803.81
2023-11-01T13:47:01.717Z,100796.75
2023-11-01T13:49:28.615Z,100799.84
2023-11-01T13:51:55.661Z,100793.50
2023-11-01T13:54:22.539Z,100794.06
2023-11-01T13:56:49.407Z,100796.00
2023-11-01T13:59:16.264Z,100798.09
2023-11-01T14:01:43.096Z,100803.38
2023-11-01T14:04:09.993Z,100815.25
2023-11-01T14:06:36.916Z,100809.22
2023-11-01T14:09:05.231Z,100811.44
2023-11-01T14:11:33.060Z,100809.72
2023-11-01T14:14:00.036Z,100802.81
2023-11-01T14:16:26.864Z,100811.03
2023-11-01T14:18:53.865Z,100811.19
2023-11-01T14:21:20.783Z,100818.16
2023-11-01T14:23:47.806Z,100814.88
2023-11-01T14:26:14.732Z,100814.88
2023-11-01T14:28:42.554Z,100811.59
2023-11-01T14:31:09.661Z,100814.81
2023-11-01T14:33:36.723Z,100814.63
2023-11-01T14:36:08.520Z,100813.72
2023-11-01T14:38:35.852Z,100821.34
2023-11-01T14:41:02.955Z,100819.88
2023-11-01T14:43:29.838Z,100816.41
2023-11-01T14:45:58.078Z,100821.91
2023-11-01T14:48:25.045Z,100812.75
2023-11-01T14:50:51.907Z,100817.75
2023-11-01T14:53:19.393Z,100816.16
2023-11-01T14:55:46.290Z,100816.50
2023-11-01T14:58:13.186Z,100818.72
2023-11-01T15:00:41.836Z,100814.31
2023-11-01T15:03:08.886Z,100819.38
2023-11-01T15:05:35.985Z,100809.97
2023-11-01T15:08:02.903Z,100806.50
2023-11-01T15:10:30.254Z,100803.06
2023-11-01T15:12:57.106Z,100801.75
2023-11-01T15:15:24.602Z,100802.66
2023-11-01T15:17:53.207Z,100796.16
2023-11-01T15:20:20.255Z,100793.16
2023-11-01T15:22:47.127Z,100799.44
2023-11-01T15:25:14.040Z,100800.25
2023-11-01T15:27:40.857Z,100799.34
2023-11-01T15:30:09.854Z,100794.03
2023-11-01T15:32:39.127Z,100795.72
2023-11-01T15:35:06.562Z,100807.22
2023-11-01T15:37:33.581Z,100794.81
2023-11-01T15:40:03.306Z,100800.59
2023-11-01T15:42:33.369Z,100799.81
2023-11-01T15:45:01.122Z,100795.81
2023-11-01T15:47:29.482Z,100794.75
2023-11-01T15:49:56.837Z,100810.56
2023-11-01T15:52:24.103Z,100803.28
2023-11-01T15:54:52.524Z,100791.31
2023-11-01T15:57:22.423Z,100783.72
2023-11-01T15:59:50.692Z,100786.09
2023-11-01T16:02:17.759Z,100782.00
2023-11-01T16:04:45.014Z,100787.81
2023-11-01T16:07:11.933Z,100786.44
2023-11-01T16:09:45.166Z,100794.66
2023-11-01T16:12:12.078Z,100789.50
2023-11-01T16:14:40.581Z,100786.09
2023-11-01T16:17:11.104Z,100786.56
2023-11-01T16:19:40.822Z,100771.44
2023-11-01T16:22:07.624Z,100774.94
2023-11-01T16:24:37.020Z,100771.66
2023-11-01T16:27:06.775Z,100778.16
2023-11-01T16:29:33.826Z,100782.06
2023-11-01T16:32:01.408Z,100784.47
2023-11-01T16:34:28.446Z,100796.16
2023-11-01T16:36:55.367Z,100793.19
2023-11-01T16:39:22.347Z,100792.03
2023-11-01T16:41:52.527Z,100794.19
2023-11-01T16:44:22.152Z,100791.97
2023-11-01T16:46:49.323Z,100795.72
2023-11-01T16:49:16.828Z,100789.41
2023-11-01T16:51:45.815Z,100796.38
2023-11-01T16:54:14.355Z,100792.03
2023-11-01T16:56:41.232Z,100779.81
2023-11-01T16:59:09.402Z,100781.13
2023-11-01T17:01:36.579Z,100782.69
2023-11-01T17:04:06.559Z,100778.59
2023-11-01T17:06:33.902Z,100780.94
2023-11-01T17:09:01.293Z,100777.91
2023-11-01T17:11:28.240Z,100784.84
2023-11-01T17:13:57.426Z,100789.69
2023-11-01T17:16:24.396Z,100795.56
2023-11-01T17:18:51.262Z,100796.84
2023-11-01T17:21:18.105Z,100802.72
2023-11-01T17:23:46.435Z,100811.88
2023-11-01T17:26:24.094Z,100814.47
2023-11-01T17:28:51.284Z,100810.34
2023-11-01T17:31:40.524Z,100812.25
2023-11-01T17:34:08.506Z,100802.19
2023-11-01T17:36:36.673Z,100793.72
2023-11-01T17:39:06.753Z,100776.38
2023-11-01T17:41:53.438Z,100780.72
2023-11-01T17:44:23.773Z,100783.56
2023-11-01T17:46:58.772Z,100797.84
2023-11-01T17:49:51.427Z,100796.22
2023-11-01T17:52:31.984Z,100801.84
2023-11-01T17:55:00.321Z,100802.69
2023-11-01T17:57:27.348Z,100799.88
2023-11-01T17:59:57.387Z,100796.84
2023-11-01T18:02:28.093Z,100805.63
2023-11-01T18:05:01.395Z,100801.28
2023-11-01T18:07:28.547Z,100795.81
2023-11-01T18:09:58.235Z,100803.91
2023-11-01T18:12:25.058Z,100818.66
2023-11-01T18:14:53.812Z,100808.13
2023-11-01T18:17:23.116Z,100803.19
2023-11-01T18:19:50.228Z,100804.25
2023-11-01T18:22:44.367Z,100807.44
2023-11-01T18:25:58.680Z,100814.69
2023-11-01T18:28:27.352Z,100806.09
2023-11-01T18:30:56.397Z,100808.00
2023-11-01T18:33:25.911Z,100810.22
2023-11-01T18:35:56.366Z,100798.84
2023-11-01T18:39:04.802Z,100795.31
2023-11-01T18:41:38.820Z,100795.31
2023-11-01T18:44:30.290Z,100793.69
2023-11-01T18:46:58.289Z,100791.25
2023-11-01T18:50:08.860Z,100785.00
2023-11-01T18:52:37.419Z,100789.59
2023-11-01T18:55:11.818Z,100786.91
2023-11-01T18:57:41.080Z,100789.00
2023-11-01T19:00:12.627Z,100780.09
2023-11-01T19:02:39.714Z,100772.25
2023-11-01T19:05:10.526Z,100774.59
2023-11-01T19:07:45.230Z,100771.06
2023-11-01T19:10:12.727Z,100770.16
2023-11-01T19:12:39.673Z,100763.47
2023-11-01T19:15:09.299Z,100756.44
2023-11-01T19:17:57.089Z,100736.38
2023-11-01T19:20:24.231Z,100734.25
2023-11-01T19:22:51.088Z,100746.34
2023-11-01T19:25:18.329Z,100741.19
2023-11-01T19:27:45.758Z,100733.69
2023-11-01T19:30:13.055Z,100732.97
2023-11-01T19:32:43.878Z,100720.31
2023-11-01T19:35:11.782Z,100726.03
2023-11-01T19:37:38.981Z,100725.81
2023-11-01T19:40:07.822Z,100730.16
2023-11-01T19:42:38.974Z,100724.88
2023-11-01T19:45:10.185Z,100716.78
2023-11-01T19:47:37.815Z,100720.28
2023-11-01T19:50:05.714Z,100725.44
2023-11-01T19:52:32.664Z,100728.13
2023-11-01T19:54:59.649Z,100732.22
2023-11-01T19:57:27.204Z,100722.25
2023-11-01T19:59:54.121Z,100722.25
2023-11-01T20:02:24.439Z,100715.25
2023-11-01T20:04:51.388Z,100717.09
2023-11-01T20:07:18.253Z,100713.59
2023-11-01T20:09:45.044Z,100703.97
2023-11-01T20:12:13.586Z,100706.69
2023-11-01T20:14:41.547Z,100704.47
2023-11-01T20:17:10.344Z,100715.25
2023-11-01T20:19:37.727Z,100718.78
2023-11-01T20:22:04.786Z,100703.06
2023-11-01T20:24:31.614Z,100689.81
2023-11-01T20:26:58.453Z,100684.19
2023-11-01T20:29:27.580Z,100681.03
2023-11-01T20:31:54.474Z,100687.25
2023-11-01T20:34:21.678Z,100687.25
2023-11-01T20:36:48.562Z,100679.38
2023-11-01T20:39:15.535Z,100673.16
2023-11-01T20:41:42.575Z,100667.94
2023-11-01T20:44:09.381Z,100674.13
2023-11-01T20:46:36.192Z,100670.38
2023-11-01T20:49:03.085Z,100669.28
2023-11-01T20:51:30.257Z,100658.50
2023-11-01T20:53:59.542Z,100659.84
2023-11-01T20:56:26.452Z,100656.91
2023-11-01T20:58:53.262Z,100643.66
2023-11-01T21:01:20.262Z,100634.63
2023-11-01T21:03:47.850Z,100637.91
2023-11-01T21:06:14.838Z,100628.13
2023-11-01T21:08:44.762Z,100627.13
2023-11-01T21:11:11.729Z,100611.75
2023-11-01T21:13:38.830Z,100618.19
2023-11-01T21:16:06.858Z,100604.50
2023-11-01T21:18:33.916Z,100607.19
2023-11-01T21:21:01.976Z,100607.41
2023-11-01T21:23:29.013Z,100609.28
2023-11-01T21:25:56.506Z,100605.41
2023-11-01T21:28:23.322Z,100596.66
2023-11-01T21:30:50.133Z,100598.53
2023-11-01T21:33:22.052Z,100589.16
2023-11-01T21:35:49.170Z,100587.50
2023-11-01T21:38:17.988Z,100581.75
2023-11-01T21:40:47.976Z,100579.56
2023-11-01T21:43:18.181Z,100567.97
2023-11-01T21:45:53.880Z,100568.41
2023-11-01T21:48:25.809Z,100567.63
2023-11-01T21:51:01.908Z,100558.13
2023-11-01T21:53:33.970Z,100549.22
2023-11-01T21:56:01.552Z,100549.22
2023-11-01T21:58:29.295Z,100548.56
2023-11-01T22:01:04.138Z,100552.88
2023-11-01T22:03:41.049Z,100562.84
2023-11-01T22:06:22.124Z,100553.72
2023-11-01T22:09:07.305Z,100553.97
2023-11-01T22:11:41.708Z,100550.91
2023-11-01T22:14:13.757Z,100545.63
2023-11-01T22:16:41.858Z,100542.13
2023-11-01T22:19:33.561Z,100533.31
2023-11-01T22:22:30.600Z,100518.69
2023-11-01T22:24:57.436Z,100525.38
2023-11-01T22:27:35.562Z,100521.38
2023-11-01T22:30:02.489Z,100514.50
2023-11-01T22:32:29.669Z,100508.88
2023-11-01T22:34:56.527Z,100502.53
2023-11-01T22:37:26.062Z,100496.41
2023-11-01T22:39:54.077Z,100477.34
2023-11-01T22:42:32.082Z,100467.13
2023-11-01T22:45:01.943Z,100462.53
2023-11-01T22:47:29.402Z,100460.44
2023-11-01T22:49:56.303Z,100463.94
2023-11-01T22:52:23.217Z,100461.59
2023-11-01T22:54:50.047Z,100445.97
2023-11-01T22:57:16.988Z,100447.63
2023-11-01T22:59:44.503Z,100444.44
2023-11-01T23:02:13.540Z,100431.22
2023-11-01T23:04:41.794Z,100410.94
2023-11-01T23:07:10.870Z,100413.81
2023-11-01T23:09:37.856Z,100406.69
2023-11-01T23:12:05.257Z,100392.31
2023-11-01T23:14:32.238Z,100395.56
2023-11-01T23:16:59.091Z,100389.63
2023-11-01T23:19:25.966Z,100391.66
2023-11-01T23:21:52.785Z,100389.28
2023-11-01T23:24:20.274Z,100387.16
2023-11-01T23:26:57.265Z,100372.66
2023-11-01T23:29:26.132Z,100375.34
2023-11-01T23:31:53.865Z,100375.34
2023-11-01T23:34:39.845Z,100376.53
2023-11-01T23:37:32.652Z,100378.41
2023-11-01T23:39:59.845Z,100367.66
2023-11-01T23:42:30.185Z,100361.00
2023-11-01T23:44:58.872Z,100349.81
2023-11-01T23:47:43.983Z,100347.81
2023-11-01T23:50:29.602Z,100345.06
2023-11-01T23:52:56.589Z,100347.97
2023-11-01T23:55:23.595Z,100344.69
2023-11-01T23:57:51.520Z,100335.22
